sensor_id;sensor_type;location;lat;lon;timestamp;P1;durP1;ratioP1;P2;durP2;ratioP2
18290;SDS011;9271;48.590;8.866;2023-07-22T00:01:39;3.97;;;2.60;;
18290;SDS011;9271;48.590;8.866;2023-07-22T00:04:06;10.80;;;7.80;;
18290;SDS011;9271;48.590;8.866;2023-07-22T00:06:33;132.53;;;75.80;;
18290;SDS011;9271;48.590;8.866;2023-07-22T00:08:59;171.43;;;100.03;;
18290;SDS011;9271;48.590;8.866;2023-07-22T00:11:27;67.23;;;40.13;;
18290;SDS011;9271;48.590;8.866;2023-07-22T00:13:55;9.83;;;6.97;;
18290;SDS011;9271;48.590;8.866;2023-07-22T00:16:22;4.90;;;3.83;;
18290;SDS011;9271;48.590;8.866;2023-07-22T00:18:49;3.50;;;3.20;;
18290;SDS011;9271;48.590;8.866;2023-07-22T00:21:16;3.47;;;3.10;;
18290;SDS011;9271;48.590;8.866;2023-07-22T00:23:43;3.27;;;2.90;;
18290;SDS011;9271;48.590;8.866;2023-07-22T00:26:11;4.00;;;3.23;;
18290;SDS011;9271;48.590;8.866;2023-07-22T00:28:37;3.43;;;3.13;;
18290;SDS011;9271;48.590;8.866;2023-07-22T00:31:05;3.90;;;3.60;;
18290;SDS011;9271;48.590;8.866;2023-07-22T00:33:33;4.73;;;3.50;;
18290;SDS011;9271;48.590;8.866;2023-07-22T00:36:00;3.90;;;3.60;;
18290;SDS011;9271;48.590;8.866;2023-07-22T00:38:26;4.40;;;3.73;;
18290;SDS011;9271;48.590;8.866;2023-07-22T00:40:53;4.40;;;3.63;;
18290;SDS011;9271;48.590;8.866;2023-07-22T00:43:20;8.07;;;3.90;;
18290;SDS011;9271;48.590;8.866;2023-07-22T00:45:46;5.27;;;3.93;;
18290;SDS011;9271;48.590;8.866;2023-07-22T00:48:15;6.57;;;4.40;;
18290;SDS011;9271;48.590;8.866;2023-07-22T00:50:42;5.40;;;4.40;;
18290;SDS011;9271;48.590;8.866;2023-07-22T00:53:10;4.20;;;3.80;;
18290;SDS011;9271;48.590;8.866;2023-07-22T00:55:37;4.00;;;3.60;;
18290;SDS011;9271;48.590;8.866;2023-07-22T00:58:05;5.40;;;3.80;;
18290;SDS011;9271;48.590;8.866;2023-07-22T01:00:32;4.70;;;4.30;;
18290;SDS011;9271;48.590;8.866;2023-07-22T01:02:59;4.43;;;3.93;;
18290;SDS011;9271;48.590;8.866;2023-07-22T01:05:27;4.57;;;3.70;;
18290;SDS011;9271;48.590;8.866;2023-07-22T01:07:54;4.00;;;3.70;;
18290;SDS011;9271;48.590;8.866;2023-07-22T01:10:21;4.40;;;4.00;;
18290;SDS011;9271;48.590;8.866;2023-07-22T01:12:48;5.97;;;3.93;;
18290;SDS011;9271;48.590;8.866;2023-07-22T01:15:15;4.63;;;4.23;;
18290;SDS011;9271;48.590;8.866;2023-07-22T01:17:43;5.13;;;4.20;;
18290;SDS011;9271;48.590;8.866;2023-07-22T01:20:10;5.70;;;4.20;;
18290;SDS011;9271;48.590;8.866;2023-07-22T01:22:39;5.80;;;3.87;;
18290;SDS011;9271;48.590;8.866;2023-07-22T01:25:10;5.27;;;3.60;;
18290;SDS011;9271;48.590;8.866;2023-07-22T01:27:37;5.20;;;3.40;;
18290;SDS011;9271;48.590;8.866;2023-07-22T01:30:04;4.53;;;3.60;;
18290;SDS011;9271;48.590;8.866;2023-07-22T01:32:34;7.50;;;3.90;;
18290;SDS011;9271;48.590;8.866;2023-07-22T01:35:01;4.60;;;3.80;;
18290;SDS011;9271;48.590;8.866;2023-07-22T01:37:28;7.33;;;4.03;;
18290;SDS011;9271;48.590;8.866;2023-07-22T01:39:54;6.80;;;3.40;;
18290;SDS011;9271;48.590;8.866;2023-07-22T01:42:23;4.07;;;3.67;;
18290;SDS011;9271;48.590;8.866;2023-07-22T01:44:50;3.90;;;3.43;;
18290;SDS011;9271;48.590;8.866;2023-07-22T01:47:16;4.27;;;3.23;;
18290;SDS011;9271;48.590;8.866;2023-07-22T01:49:43;3.90;;;3.50;;
18290;SDS011;9271;48.590;8.866;2023-07-22T01:52:10;3.80;;;3.50;;
18290;SDS011;9271;48.590;8.866;2023-07-22T01:54:37;3.67;;;3.37;;
18290;SDS011;9271;48.590;8.866;2023-07-22T01:57:04;3.97;;;3.50;;
18290;SDS011;9271;48.590;8.866;2023-07-22T01:59:32;4.30;;;3.50;;
18290;SDS011;9271;48.590;8.866;2023-07-22T02:01:59;3.60;;;3.10;;
18290;SDS011;9271;48.590;8.866;2023-07-22T02:04:26;3.43;;;3.13;;
18290;SDS011;9271;48.590;8.866;2023-07-22T02:06:52;5.23;;;3.77;;
18290;SDS011;9271;48.590;8.866;2023-07-22T02:09:19;3.53;;;3.20;;
18290;SDS011;9271;48.590;8.866;2023-07-22T02:11:46;4.03;;;3.60;;
18290;SDS011;9271;48.590;8.866;2023-07-22T02:14:13;6.93;;;3.87;;
18290;SDS011;9271;48.590;8.866;2023-07-22T02:16:41;5.67;;;3.40;;
18290;SDS011;9271;48.590;8.866;2023-07-22T02:19:08;4.23;;;3.57;;
18290;SDS011;9271;48.590;8.866;2023-07-22T02:21:34;4.83;;;3.57;;
18290;SDS011;9271;48.590;8.866;2023-07-22T02:24:01;7.20;;;3.90;;
18290;SDS011;9271;48.590;8.866;2023-07-22T02:26:28;4.83;;;3.73;;
18290;SDS011;9271;48.590;8.866;2023-07-22T02:28:54;4.57;;;4.00;;
18290;SDS011;9271;48.590;8.866;2023-07-22T02:31:21;5.30;;;3.80;;
18290;SDS011;9271;48.590;8.866;2023-07-22T02:33:49;7.10;;;3.73;;
18290;SDS011;9271;48.590;8.866;2023-07-22T02:36:16;3.93;;;3.63;;
18290;SDS011;9271;48.590;8.866;2023-07-22T02:38:43;4.20;;;3.60;;
18290;SDS011;9271;48.590;8.866;2023-07-22T02:41:09;3.97;;;3.57;;
18290;SDS011;9271;48.590;8.866;2023-07-22T02:43:36;5.13;;;4.53;;
18290;SDS011;9271;48.590;8.866;2023-07-22T02:46:04;5.73;;;4.60;;
18290;SDS011;9271;48.590;8.866;2023-07-22T02:48:32;4.47;;;4.07;;
18290;SDS011;9271;48.590;8.866;2023-07-22T02:51:03;4.47;;;4.07;;
18290;SDS011;9271;48.590;8.866;2023-07-22T02:53:31;4.30;;;3.73;;
18290;SDS011;9271;48.590;8.866;2023-07-22T02:55:57;4.67;;;4.17;;
18290;SDS011;9271;48.590;8.866;2023-07-22T02:58:24;4.80;;;4.33;;
18290;SDS011;9271;48.590;8.866;2023-07-22T03:00:51;4.80;;;4.37;;
18290;SDS011;9271;48.590;8.866;2023-07-22T03:03:18;6.17;;;4.07;;
18290;SDS011;9271;48.590;8.866;2023-07-22T03:05:45;5.00;;;4.53;;
18290;SDS011;9271;48.590;8.866;2023-07-22T03:08:13;4.57;;;4.17;;
18290;SDS011;9271;48.590;8.866;2023-07-22T03:10:40;4.20;;;3.90;;
18290;SDS011;9271;48.590;8.866;2023-07-22T03:13:09;5.10;;;4.40;;
18290;SDS011;9271;48.590;8.866;2023-07-22T03:15:35;5.37;;;4.33;;
18290;SDS011;9271;48.590;8.866;2023-07-22T03:18:02;4.50;;;4.10;;
18290;SDS011;9271;48.590;8.866;2023-07-22T03:20:29;6.87;;;4.60;;
18290;SDS011;9271;48.590;8.866;2023-07-22T03:22:56;4.93;;;4.43;;
18290;SDS011;9271;48.590;8.866;2023-07-22T03:25:23;5.77;;;5.27;;
18290;SDS011;9271;48.590;8.866;2023-07-22T03:27:50;5.93;;;5.40;;
18290;SDS011;9271;48.590;8.866;2023-07-22T03:30:17;5.20;;;4.60;;
18290;SDS011;9271;48.590;8.866;2023-07-22T03:32:45;9.70;;;4.63;;
18290;SDS011;9271;48.590;8.866;2023-07-22T03:35:15;5.17;;;4.67;;
18290;SDS011;9271;48.590;8.866;2023-07-22T03:37:42;7.43;;;5.27;;
18290;SDS011;9271;48.590;8.866;2023-07-22T03:40:09;7.07;;;4.93;;
18290;SDS011;9271;48.590;8.866;2023-07-22T03:42:44;5.37;;;4.87;;
18290;SDS011;9271;48.590;8.866;2023-07-22T03:45:11;6.67;;;5.63;;
18290;SDS011;9271;48.590;8.866;2023-07-22T03:47:38;6.13;;;5.53;;
18290;SDS011;9271;48.590;8.866;2023-07-22T03:50:05;8.27;;;5.50;;
18290;SDS011;9271;48.590;8.866;2023-07-22T03:52:32;7.33;;;5.07;;
18290;SDS011;9271;48.590;8.866;2023-07-22T03:54:59;5.80;;;5.30;;
18290;SDS011;9271;48.590;8.866;2023-07-22T03:57:26;5.43;;;4.83;;
18290;SDS011;9271;48.590;8.866;2023-07-22T03:59:54;5.77;;;4.73;;
18290;SDS011;9271;48.590;8.866;2023-07-22T04:02:21;5.27;;;4.77;;
18290;SDS011;9271;48.590;8.866;2023-07-22T04:04:48;5.17;;;4.50;;
18290;SDS011;9271;48.590;8.866;2023-07-22T04:07:16;5.07;;;4.63;;
18290;SDS011;9271;48.590;8.866;2023-07-22T04:09:42;4.33;;;3.93;;
18290;SDS011;9271;48.590;8.866;2023-07-22T04:12:10;4.33;;;3.93;;
18290;SDS011;9271;48.590;8.866;2023-07-22T04:14:37;4.63;;;4.10;;
18290;SDS011;9271;48.590;8.866;2023-07-22T04:17:06;4.67;;;4.20;;
18290;SDS011;9271;48.590;8.866;2023-07-22T04:19:33;4.27;;;3.87;;
18290;SDS011;9271;48.590;8.866;2023-07-22T04:22:00;5.03;;;4.20;;
18290;SDS011;9271;48.590;8.866;2023-07-22T04:24:29;4.27;;;3.87;;
18290;SDS011;9271;48.590;8.866;2023-07-22T04:26:56;5.63;;;4.00;;
18290;SDS011;9271;48.590;8.866;2023-07-22T04:29:23;4.43;;;3.50;;
18290;SDS011;9271;48.590;8.866;2023-07-22T04:31:49;4.10;;;3.73;;
18290;SDS011;9271;48.590;8.866;2023-07-22T04:34:17;5.23;;;4.00;;
18290;SDS011;9271;48.590;8.866;2023-07-22T04:36:44;7.43;;;3.73;;
18290;SDS011;9271;48.590;8.866;2023-07-22T04:39:11;4.67;;;3.77;;
18290;SDS011;9271;48.590;8.866;2023-07-22T04:41:37;4.73;;;3.67;;
18290;SDS011;9271;48.590;8.866;2023-07-22T04:44:04;3.83;;;3.53;;
18290;SDS011;9271;48.590;8.866;2023-07-22T04:46:31;4.17;;;3.60;;
18290;SDS011;9271;48.590;8.866;2023-07-22T04:48:57;3.83;;;3.50;;
18290;SDS011;9271;48.590;8.866;2023-07-22T04:51:26;5.10;;;4.10;;
18290;SDS011;9271;48.590;8.866;2023-07-22T04:53:52;4.93;;;3.57;;
18290;SDS011;9271;48.590;8.866;2023-07-22T04:56:19;5.17;;;3.57;;
18290;SDS011;9271;48.590;8.866;2023-07-22T04:58:46;3.93;;;3.40;;
18290;SDS011;9271;48.590;8.866;2023-07-22T05:01:14;4.77;;;3.60;;
18290;SDS011;9271;48.590;8.866;2023-07-22T05:03:41;3.50;;;3.20;;
18290;SDS011;9271;48.590;8.866;2023-07-22T05:06:08;3.33;;;3.00;;
18290;SDS011;9271;48.590;8.866;2023-07-22T05:08:36;3.67;;;3.37;;
18290;SDS011;9271;48.590;8.866;2023-07-22T05:11:03;6.07;;;3.00;;
18290;SDS011;9271;48.590;8.866;2023-07-22T05:13:30;3.53;;;3.23;;
18290;SDS011;9271;48.590;8.866;2023-07-22T05:15:57;3.57;;;3.27;;
18290;SDS011;9271;48.590;8.866;2023-07-22T05:18:23;3.83;;;3.43;;
18290;SDS011;9271;48.590;8.866;2023-07-22T05:20:50;3.77;;;3.30;;
18290;SDS011;9271;48.590;8.866;2023-07-22T05:23:17;6.53;;;3.33;;
18290;SDS011;9271;48.590;8.866;2023-07-22T05:25:50;4.63;;;3.73;;
18290;SDS011;9271;48.590;8.866;2023-07-22T05:28:17;5.30;;;3.23;;
18290;SDS011;9271;48.590;8.866;2023-07-22T05:30:43;3.77;;;3.17;;
18290;SDS011;9271;48.590;8.866;2023-07-22T05:33:10;4.00;;;3.07;;
18290;SDS011;9271;48.590;8.866;2023-07-22T05:35:37;4.40;;;3.40;;
18290;SDS011;9271;48.590;8.866;2023-07-22T05:38:03;3.40;;;3.10;;
18290;SDS011;9271;48.590;8.866;2023-07-22T05:40:31;6.17;;;3.67;;
18290;SDS011;9271;48.590;8.866;2023-07-22T05:42:59;4.10;;;3.20;;
18290;SDS011;9271;48.590;8.866;2023-07-22T05:45:26;3.57;;;3.10;;
18290;SDS011;9271;48.590;8.866;2023-07-22T05:47:52;4.60;;;3.10;;
18290;SDS011;9271;48.590;8.866;2023-07-22T05:50:19;4.33;;;2.70;;
18290;SDS011;9271;48.590;8.866;2023-07-22T05:52:46;3.40;;;3.10;;
18290;SDS011;9271;48.590;8.866;2023-07-22T05:55:13;3.10;;;2.90;;
18290;SDS011;9271;48.590;8.866;2023-07-22T05:57:40;3.90;;;2.97;;
18290;SDS011;9271;48.590;8.866;2023-07-22T06:00:08;3.77;;;2.90;;
18290;SDS011;9271;48.590;8.866;2023-07-22T06:02:38;4.30;;;2.93;;
18290;SDS011;9271;48.590;8.866;2023-07-22T06:05:04;4.17;;;3.30;;
18290;SDS011;9271;48.590;8.866;2023-07-22T06:07:32;3.00;;;2.60;;
18290;SDS011;9271;48.590;8.866;2023-07-22T06:09:58;2.97;;;2.77;;
18290;SDS011;9271;48.590;8.866;2023-07-22T06:12:25;2.80;;;2.60;;
18290;SDS011;9271;48.590;8.866;2023-07-22T06:14:52;3.10;;;2.90;;
18290;SDS011;9271;48.590;8.866;2023-07-22T06:17:20;3.80;;;2.83;;
18290;SDS011;9271;48.590;8.866;2023-07-22T06:19:46;3.10;;;2.90;;
18290;SDS011;9271;48.590;8.866;2023-07-22T06:22:13;6.97;;;3.07;;
18290;SDS011;9271;48.590;8.866;2023-07-22T06:24:39;4.70;;;2.47;;
18290;SDS011;9271;48.590;8.866;2023-07-22T06:27:06;5.00;;;3.17;;
18290;SDS011;9271;48.590;8.866;2023-07-22T06:29:33;4.77;;;2.53;;
18290;SDS011;9271;48.590;8.866;2023-07-22T06:31:59;3.27;;;2.80;;
18290;SDS011;9271;48.590;8.866;2023-07-22T06:34:27;3.10;;;2.80;;
18290;SDS011;9271;48.590;8.866;2023-07-22T06:36:54;4.00;;;3.00;;
18290;SDS011;9271;48.590;8.866;2023-07-22T06:39:21;3.10;;;2.90;;
18290;SDS011;9271;48.590;8.866;2023-07-22T06:41:47;4.77;;;2.87;;
18290;SDS011;9271;48.590;8.866;2023-07-22T06:44:14;4.33;;;2.50;;
18290;SDS011;9271;48.590;8.866;2023-07-22T06:46:41;5.57;;;3.03;;
18290;SDS011;9271;48.590;8.866;2023-07-22T06:49:09;3.60;;;2.73;;
18290;SDS011;9271;48.590;8.866;2023-07-22T06:51:37;2.90;;;2.70;;
18290;SDS011;9271;48.590;8.866;2023-07-22T06:54:04;4.27;;;2.73;;
18290;SDS011;9271;48.590;8.866;2023-07-22T06:56:30;3.77;;;2.63;;
18290;SDS011;9271;48.590;8.866;2023-07-22T06:58:57;3.17;;;2.50;;
18290;SDS011;9271;48.590;8.866;2023-07-22T07:01:24;2.80;;;2.60;;
18290;SDS011;9271;48.590;8.866;2023-07-22T07:03:51;3.43;;;2.73;;
18290;SDS011;9271;48.590;8.866;2023-07-22T07:06:17;2.80;;;2.53;;
18290;SDS011;9271;48.590;8.866;2023-07-22T07:08:45;2.87;;;2.57;;
18290;SDS011;9271;48.590;8.866;2023-07-22T07:11:14;4.20;;;3.00;;
18290;SDS011;9271;48.590;8.866;2023-07-22T07:13:40;2.90;;;2.50;;
18290;SDS011;9271;48.590;8.866;2023-07-22T07:16:20;4.20;;;2.70;;
18290;SDS011;9271;48.590;8.866;2023-07-22T07:18:47;3.60;;;2.30;;
18290;SDS011;9271;48.590;8.866;2023-07-22T07:21:14;6.33;;;2.83;;
18290;SDS011;9271;48.590;8.866;2023-07-22T07:23:41;2.80;;;2.60;;
18290;SDS011;9271;48.590;8.866;2023-07-22T07:26:09;4.10;;;2.40;;
18290;SDS011;9271;48.590;8.866;2023-07-22T07:28:35;3.37;;;2.30;;
18290;SDS011;9271;48.590;8.866;2023-07-22T07:31:02;5.63;;;2.40;;
18290;SDS011;9271;48.590;8.866;2023-07-22T07:33:29;3.60;;;2.63;;
18290;SDS011;9271;48.590;8.866;2023-07-22T07:35:55;2.87;;;2.40;;
18290;SDS011;9271;48.590;8.866;2023-07-22T07:38:22;2.53;;;2.20;;
18290;SDS011;9271;48.590;8.866;2023-07-22T07:40:51;3.00;;;2.50;;
18290;SDS011;9271;48.590;8.866;2023-07-22T07:43:19;3.37;;;2.60;;
18290;SDS011;9271;48.590;8.866;2023-07-22T07:45:46;5.80;;;2.47;;
18290;SDS011;9271;48.590;8.866;2023-07-22T07:48:13;2.40;;;2.20;;
18290;SDS011;9271;48.590;8.866;2023-07-22T07:50:39;4.03;;;2.40;;
18290;SDS011;9271;48.590;8.866;2023-07-22T07:53:06;2.43;;;2.10;;
18290;SDS011;9271;48.590;8.866;2023-07-22T07:55:32;2.60;;;2.40;;
18290;SDS011;9271;48.590;8.866;2023-07-22T07:57:59;3.53;;;2.08;;
18290;SDS011;9271;48.590;8.866;2023-07-22T08:00:27;3.22;;;2.10;;
18290;SDS011;9271;48.590;8.866;2023-07-22T08:02:54;3.13;;;2.00;;
18290;SDS011;9271;48.590;8.866;2023-07-22T08:05:21;3.97;;;2.20;;
18290;SDS011;9271;48.590;8.866;2023-07-22T08:07:47;2.53;;;2.08;;
18290;SDS011;9271;48.590;8.866;2023-07-22T08:10:14;2.63;;;2.08;;
18290;SDS011;9271;48.590;8.866;2023-07-22T08:12:41;5.93;;;2.47;;
18290;SDS011;9271;48.590;8.866;2023-07-22T08:15:07;5.20;;;2.20;;
18290;SDS011;9271;48.590;8.866;2023-07-22T08:17:36;1.60;;;1.50;;
18290;SDS011;9271;48.590;8.866;2023-07-22T08:20:03;2.92;;;1.80;;
18290;SDS011;9271;48.590;8.866;2023-07-22T08:22:31;1.73;;;1.60;;
18290;SDS011;9271;48.590;8.866;2023-07-22T08:24:58;1.70;;;1.60;;
18290;SDS011;9271;48.590;8.866;2023-07-22T08:27:24;1.92;;;1.67;;
18290;SDS011;9271;48.590;8.866;2023-07-22T08:29:51;1.70;;;1.60;;
18290;SDS011;9271;48.590;8.866;2023-07-22T08:32:18;1.38;;;1.38;;
18290;SDS011;9271;48.590;8.866;2023-07-22T08:34:46;1.60;;;1.50;;
18290;SDS011;9271;48.590;8.866;2023-07-22T08:37:12;3.10;;;1.63;;
18290;SDS011;9271;48.590;8.866;2023-07-22T08:39:39;3.53;;;1.50;;
18290;SDS011;9271;48.590;8.866;2023-07-22T08:42:06;1.77;;;1.52;;
18290;SDS011;9271;48.590;8.866;2023-07-22T08:44:34;1.50;;;1.40;;
18290;SDS011;9271;48.590;8.866;2023-07-22T08:47:08;1.70;;;1.50;;
18290;SDS011;9271;48.590;8.866;2023-07-22T08:49:40;1.70;;;1.60;;
18290;SDS011;9271;48.590;8.866;2023-07-22T08:52:13;2.23;;;1.50;;
18290;SDS011;9271;48.590;8.866;2023-07-22T08:54:41;2.63;;;1.60;;
18290;SDS011;9271;48.590;8.866;2023-07-22T08:57:08;3.17;;;1.77;;
18290;SDS011;9271;48.590;8.866;2023-07-22T08:59:36;2.63;;;1.60;;
18290;SDS011;9271;48.590;8.866;2023-07-22T09:02:04;1.70;;;1.60;;
18290;SDS011;9271;48.590;8.866;2023-07-22T09:04:31;2.15;;;1.52;;
18290;SDS011;9271;48.590;8.866;2023-07-22T09:06:58;2.25;;;1.67;;
18290;SDS011;9271;48.590;8.866;2023-07-22T09:09:26;3.65;;;1.67;;
18290;SDS011;9271;48.590;8.866;2023-07-22T09:11:53;1.92;;;1.60;;
18290;SDS011;9271;48.590;8.866;2023-07-22T09:14:21;9.57;;;6.60;;
18290;SDS011;9271;48.590;8.866;2023-07-22T09:16:49;2.60;;;1.90;;
18290;SDS011;9271;48.590;8.866;2023-07-22T09:19:16;1.80;;;1.50;;
18290;SDS011;9271;48.590;8.866;2023-07-22T09:21:44;1.70;;;1.60;;
18290;SDS011;9271;48.590;8.866;2023-07-22T09:24:20;1.57;;;1.47;;
18290;SDS011;9271;48.590;8.866;2023-07-22T09:26:49;2.43;;;1.67;;
18290;SDS011;9271;48.590;8.866;2023-07-22T09:29:15;1.60;;;1.50;;
18290;SDS011;9271;48.590;8.866;2023-07-22T09:31:49;1.73;;;1.63;;
18290;SDS011;9271;48.590;8.866;2023-07-22T09:34:17;2.10;;;1.60;;
18290;SDS011;9271;48.590;8.866;2023-07-22T09:36:49;2.07;;;1.60;;
18290;SDS011;9271;48.590;8.866;2023-07-22T09:39:17;3.17;;;1.60;;
18290;SDS011;9271;48.590;8.866;2023-07-22T09:41:43;1.60;;;1.50;;
18290;SDS011;9271;48.590;8.866;2023-07-22T09:44:11;1.80;;;1.70;;
18290;SDS011;9271;48.590;8.866;2023-07-22T09:46:38;1.73;;;1.63;;
18290;SDS011;9271;48.590;8.866;2023-07-22T09:49:06;1.87;;;1.70;;
18290;SDS011;9271;48.590;8.866;2023-07-22T09:51:34;1.70;;;1.60;;
18290;SDS011;9271;48.590;8.866;2023-07-22T09:54:02;1.70;;;1.60;;
18290;SDS011;9271;48.590;8.866;2023-07-22T09:56:31;1.90;;;1.80;;
18290;SDS011;9271;48.590;8.866;2023-07-22T09:58:58;1.77;;;1.60;;
18290;SDS011;9271;48.590;8.866;2023-07-22T10:01:26;1.85;;;1.75;;
18290;SDS011;9271;48.590;8.866;2023-07-22T10:03:54;1.70;;;1.60;;
18290;SDS011;9271;48.590;8.866;2023-07-22T10:06:21;1.80;;;1.70;;
18290;SDS011;9271;48.590;8.866;2023-07-22T10:08:50;1.92;;;1.83;;
18290;SDS011;9271;48.590;8.866;2023-07-22T10:11:17;1.85;;;1.60;;
18290;SDS011;9271;48.590;8.866;2023-07-22T10:13:44;2.25;;;1.83;;
18290;SDS011;9271;48.590;8.866;2023-07-22T10:16:11;3.17;;;2.00;;
18290;SDS011;9271;48.590;8.866;2023-07-22T10:18:40;3.07;;;1.90;;
18290;SDS011;9271;48.590;8.866;2023-07-22T10:21:08;1.70;;;1.60;;
18290;SDS011;9271;48.590;8.866;2023-07-22T10:23:34;1.90;;;1.80;;
18290;SDS011;9271;48.590;8.866;2023-07-22T10:26:02;3.42;;;1.92;;
18290;SDS011;9271;48.590;8.866;2023-07-22T10:28:30;2.00;;;1.90;;
18290;SDS011;9271;48.590;8.866;2023-07-22T10:30:58;3.28;;;2.28;;
18290;SDS011;9271;48.590;8.866;2023-07-22T10:33:25;2.27;;;2.07;;
18290;SDS011;9271;48.590;8.866;2023-07-22T10:36:03;3.03;;;1.70;;
18290;SDS011;9271;48.590;8.866;2023-07-22T10:38:31;2.85;;;1.80;;
18290;SDS011;9271;48.590;8.866;2023-07-22T10:40:58;3.20;;;2.08;;
18290;SDS011;9271;48.590;8.866;2023-07-22T10:43:26;1.90;;;1.80;;
18290;SDS011;9271;48.590;8.866;2023-07-22T10:45:54;3.15;;;1.50;;
18290;SDS011;9271;48.590;8.866;2023-07-22T10:48:22;1.98;;;1.50;;
18290;SDS011;9271;48.590;8.866;2023-07-22T10:50:53;2.08;;;1.80;;
18290;SDS011;9271;48.590;8.866;2023-07-22T10:53:27;2.33;;;1.73;;
18290;SDS011;9271;48.590;8.866;2023-07-22T10:56:05;1.85;;;1.58;;
18290;SDS011;9271;48.590;8.866;2023-07-22T10:58:36;1.97;;;1.70;;
18290;SDS011;9271;48.590;8.866;2023-07-22T11:01:33;6.25;;;1.60;;
18290;SDS011;9271;48.590;8.866;2023-07-22T11:04:08;1.80;;;1.70;;
18290;SDS011;9271;48.590;8.866;2023-07-22T11:06:37;1.90;;;1.70;;
18290;SDS011;9271;48.590;8.866;2023-07-22T11:09:05;3.35;;;1.88;;
18290;SDS011;9271;48.590;8.866;2023-07-22T11:11:36;1.70;;;1.60;;
18290;SDS011;9271;48.590;8.866;2023-07-22T11:14:14;1.70;;;1.60;;
18290;SDS011;9271;48.590;8.866;2023-07-22T11:16:42;1.75;;;1.65;;
18290;SDS011;9271;48.590;8.866;2023-07-22T11:19:10;1.60;;;1.50;;
18290;SDS011;9271;48.590;8.866;2023-07-22T11:21:38;2.20;;;1.55;;
18290;SDS011;9271;48.590;8.866;2023-07-22T11:24:05;4.18;;;1.92;;
18290;SDS011;9271;48.590;8.866;2023-07-22T11:26:33;2.97;;;2.28;;
18290;SDS011;9271;48.590;8.866;2023-07-22T11:29:00;1.88;;;1.77;;
18290;SDS011;9271;48.590;8.866;2023-07-22T11:31:32;4.97;;;1.98;;
18290;SDS011;9271;48.590;8.866;2023-07-22T11:33:59;2.15;;;1.92;;
18290;SDS011;9271;48.590;8.866;2023-07-22T11:36:26;1.80;;;1.70;;
18290;SDS011;9271;48.590;8.866;2023-07-22T11:38:53;2.67;;;1.70;;
18290;SDS011;9271;48.590;8.866;2023-07-22T11:41:20;2.23;;;2.10;;
18290;SDS011;9271;48.590;8.866;2023-07-22T11:43:47;3.00;;;1.97;;
18290;SDS011;9271;48.590;8.866;2023-07-22T11:46:13;1.80;;;1.70;;
18290;SDS011;9271;48.590;8.866;2023-07-22T11:48:49;2.37;;;1.90;;
18290;SDS011;9271;48.590;8.866;2023-07-22T11:51:17;2.17;;;1.98;;
18290;SDS011;9271;48.590;8.866;2023-07-22T11:53:46;2.10;;;1.90;;
18290;SDS011;9271;48.590;8.866;2023-07-22T11:56:17;2.00;;;1.90;;
18290;SDS011;9271;48.590;8.866;2023-07-22T11:58:48;5.25;;;1.98;;
18290;SDS011;9271;48.590;8.866;2023-07-22T12:01:15;2.90;;;2.15;;
18290;SDS011;9271;48.590;8.866;2023-07-22T12:03:42;2.10;;;2.00;;
18290;SDS011;9271;48.590;8.866;2023-07-22T12:06:10;2.00;;;1.90;;
18290;SDS011;9271;48.590;8.866;2023-07-22T12:08:42;1.98;;;1.88;;
18290;SDS011;9271;48.590;8.866;2023-07-22T12:11:15;2.00;;;1.90;;
18290;SDS011;9271;48.590;8.866;2023-07-22T12:13:43;2.42;;;1.90;;
18290;SDS011;9271;48.590;8.866;2023-07-22T12:16:11;3.72;;;2.00;;
18290;SDS011;9271;48.590;8.866;2023-07-22T12:18:41;3.10;;;1.80;;
18290;SDS011;9271;48.590;8.866;2023-07-22T12:21:08;2.63;;;2.10;;
18290;SDS011;9271;48.590;8.866;2023-07-22T12:23:37;2.42;;;2.22;;
18290;SDS011;9271;48.590;8.866;2023-07-22T12:26:04;2.00;;;1.90;;
18290;SDS011;9271;48.590;8.866;2023-07-22T12:28:30;2.45;;;1.90;;
18290;SDS011;9271;48.590;8.866;2023-07-22T12:30:57;2.33;;;2.13;;
18290;SDS011;9271;48.590;8.866;2023-07-22T12:33:24;2.88;;;2.03;;
18290;SDS011;9271;48.590;8.866;2023-07-22T12:35:50;3.60;;;2.28;;
18290;SDS011;9271;48.590;8.866;2023-07-22T12:38:20;2.30;;;2.15;;
18290;SDS011;9271;48.590;8.866;2023-07-22T12:40:47;2.63;;;2.10;;
18290;SDS011;9271;48.590;8.866;2023-07-22T12:43:13;2.60;;;2.40;;
18290;SDS011;9271;48.590;8.866;2023-07-22T12:45:40;2.67;;;2.47;;
18290;SDS011;9271;48.590;8.866;2023-07-22T12:48:08;2.50;;;2.30;;
18290;SDS011;9271;48.590;8.866;2023-07-22T12:50:35;2.97;;;2.50;;
18290;SDS011;9271;48.590;8.866;2023-07-22T12:53:02;2.50;;;2.30;;
18290;SDS011;9271;48.590;8.866;2023-07-22T12:55:30;2.95;;;2.35;;
18290;SDS011;9271;48.590;8.866;2023-07-22T12:57:57;3.17;;;2.22;;
18290;SDS011;9271;48.590;8.866;2023-07-22T13:00:23;4.40;;;2.65;;
18290;SDS011;9271;48.590;8.866;2023-07-22T13:02:50;3.05;;;2.55;;
18290;SDS011;9271;48.590;8.866;2023-07-22T13:05:17;2.83;;;2.50;;
18290;SDS011;9271;48.590;8.866;2023-07-22T13:07:44;2.55;;;2.30;;
18290;SDS011;9271;48.590;8.866;2023-07-22T13:10:10;2.67;;;2.28;;
18290;SDS011;9271;48.590;8.866;2023-07-22T13:12:42;3.35;;;2.38;;
18290;SDS011;9271;48.590;8.866;2023-07-22T13:15:09;2.42;;;2.22;;
18290;SDS011;9271;48.590;8.866;2023-07-22T13:17:36;3.33;;;2.38;;
18290;SDS011;9271;48.590;8.866;2023-07-22T13:20:03;2.53;;;2.33;;
18290;SDS011;9271;48.590;8.866;2023-07-22T13:22:31;2.90;;;2.70;;
18290;SDS011;9271;48.590;8.866;2023-07-22T13:24:58;3.80;;;2.60;;
18290;SDS011;9271;48.590;8.866;2023-07-22T13:27:25;3.60;;;2.60;;
18290;SDS011;9271;48.590;8.866;2023-07-22T13:29:53;3.28;;;2.30;;
18290;SDS011;9271;48.590;8.866;2023-07-22T13:32:19;2.78;;;2.50;;
18290;SDS011;9271;48.590;8.866;2023-07-22T13:34:46;2.35;;;2.20;;
18290;SDS011;9271;48.590;8.866;2023-07-22T13:37:13;3.45;;;2.40;;
18290;SDS011;9271;48.590;8.866;2023-07-22T13:39:39;3.42;;;2.75;;
18290;SDS011;9271;48.590;8.866;2023-07-22T13:42:06;2.60;;;2.40;;
18290;SDS011;9271;48.590;8.866;2023-07-22T13:44:34;2.80;;;2.30;;
18290;SDS011;9271;48.590;8.866;2023-07-22T13:47:02;2.83;;;2.40;;
18290;SDS011;9271;48.590;8.866;2023-07-22T13:49:29;2.47;;;2.30;;
18290;SDS011;9271;48.590;8.866;2023-07-22T13:51:55;3.20;;;2.90;;
18290;SDS011;9271;48.590;8.866;2023-07-22T13:54:22;2.80;;;2.60;;
18290;SDS011;9271;48.590;8.866;2023-07-22T13:56:49;2.88;;;2.67;;
18290;SDS011;9271;48.590;8.866;2023-07-22T13:59:15;2.80;;;2.60;;
18290;SDS011;9271;48.590;8.866;2023-07-22T14:01:42;2.37;;;2.17;;
18290;SDS011;9271;48.590;8.866;2023-07-22T14:04:10;3.10;;;2.60;;
18290;SDS011;9271;48.590;8.866;2023-07-22T14:06:37;6.10;;;2.50;;
18290;SDS011;9271;48.590;8.866;2023-07-22T14:09:03;3.25;;;2.45;;
18290;SDS011;9271;48.590;8.866;2023-07-22T14:11:30;4.28;;;2.30;;
18290;SDS011;9271;48.590;8.866;2023-07-22T14:13:57;2.80;;;2.45;;
18290;SDS011;9271;48.590;8.866;2023-07-22T14:16:23;2.60;;;2.40;;
18290;SDS011;9271;48.590;8.866;2023-07-22T14:18:50;3.50;;;2.38;;
18290;SDS011;9271;48.590;8.866;2023-07-22T14:21:19;3.17;;;2.75;;
18290;SDS011;9271;48.590;8.866;2023-07-22T14:23:45;2.63;;;2.50;;
18290;SDS011;9271;48.590;8.866;2023-07-22T14:26:12;3.03;;;2.55;;
18290;SDS011;9271;48.590;8.866;2023-07-22T14:28:39;2.60;;;2.40;;
18290;SDS011;9271;48.590;8.866;2023-07-22T14:31:05;3.03;;;2.63;;
18290;SDS011;9271;48.590;8.866;2023-07-22T14:33:32;3.10;;;2.80;;
18290;SDS011;9271;48.590;8.866;2023-07-22T14:35:59;2.95;;;2.60;;
18290;SDS011;9271;48.590;8.866;2023-07-22T14:38:27;2.58;;;2.38;;
18290;SDS011;9271;48.590;8.866;2023-07-22T14:40:54;2.72;;;2.53;;
18290;SDS011;9271;48.590;8.866;2023-07-22T14:43:20;3.35;;;2.45;;
18290;SDS011;9271;48.590;8.866;2023-07-22T14:45:47;2.55;;;2.35;;
18290;SDS011;9271;48.590;8.866;2023-07-22T14:48:14;3.78;;;2.40;;
18290;SDS011;9271;48.590;8.866;2023-07-22T14:50:40;3.10;;;2.80;;
18290;SDS011;9271;48.590;8.866;2023-07-22T14:53:07;2.83;;;2.63;;
18290;SDS011;9271;48.590;8.866;2023-07-22T14:55:35;3.00;;;2.80;;
18290;SDS011;9271;48.590;8.866;2023-07-22T14:58:01;3.20;;;2.77;;
18290;SDS011;9271;48.590;8.866;2023-07-22T15:00:28;3.53;;;2.60;;
18290;SDS011;9271;48.590;8.866;2023-07-22T15:02:55;2.63;;;2.43;;